Time;durP1;ratioP1;P1;durP2;ratioP2;P2;SDS_P1;SDS_P2;PMS_P1;PMS_P2;Temp;Humidity;BMP_temperature;BMP_pressure;BME280_temperature;BME280_humidity;BME280_pressure;Samples;Min_cycle;Max_cycle;Signal;HPM_P1;HPM_P2
2021/09/06 00:02:25;;;;;;;5.15;3.60;;;18.70;75.90;;;;;;5044968;28;20550;-73
2021/09/06 00:04:51;;;;;;;11.63;3.80;;;18.70;75.50;;;;;;5033646;28;20030;-73
2021/09/06 00:07:17;;;;;;;6.03;3.78;;;18.60;75.30;;;;;;5039899;28;20036;-73
2021/09/06 00:09:45;;;;;;;4.30;3.13;;;18.60;75.10;;;;;;5034981;28;20083;-73
2021/09/06 00:12:11;;;;;;;5.63;3.35;;;18.60;74.70;;;;;;5045692;28;20048;-73
2021/09/06 00:14:36;;;;;;;6.28;3.10;;;18.60;74.60;;;;;;5043823;28;20013;-72
2021/09/06 00:17:02;;;;;;;5.47;3.65;;;18.50;74.20;;;;;;5032839;28;20488;-73
2021/09/06 00:19:28;;;;;;;5.13;3.50;;;18.50;73.80;;;;;;5040341;28;20131;-73
2021/09/06 00:21:54;;;;;;;6.07;3.45;;;18.50;73.60;;;;;;5045533;28;20064;-73
2021/09/06 00:24:20;;;;;;;6.07;3.85;;;18.40;73.30;;;;;;5036178;28;20413;-73
2021/09/06 00:26:45;;;;;;;8.35;3.67;;;18.40;73.20;;;;;;5033882;28;20076;-73
2021/09/06 00:29:11;;;;;;;8.63;4.68;;;18.40;73.30;;;;;;5040320;28;20025;-73
2021/09/06 00:31:37;;;;;;;6.43;3.50;;;18.40;73.20;;;;;;5036364;28;20499;-73
2021/09/06 00:34:02;;;;;;;6.45;3.60;;;18.30;73.00;;;;;;5036906;28;20044;-73
2021/09/06 00:36:28;;;;;;;5.18;2.80;;;18.30;73.20;;;;;;5037261;28;20185;-73
2021/09/06 00:38:53;;;;;;;4.00;2.40;;;18.30;72.80;;;;;;5044911;28;20025;-73
2021/09/06 00:41:20;;;;;;;5.40;2.60;;;18.30;72.40;;;;;;5036760;28;20388;-73
2021/09/06 00:43:47;;;;;;;9.63;1.63;;;18.20;72.40;;;;;;5032243;28;20675;-73
2021/09/06 00:46:14;;;;;;;2.47;1.90;;;18.20;71.50;;;;;;5046704;28;20381;-73
2021/09/06 00:48:40;;;;;;;2.53;2.13;;;18.10;71.10;;;;;;5037288;28;20053;-73
2021/09/06 00:51:05;;;;;;;5.07;2.95;;;18.10;71.10;;;;;;5045593;28;20025;-73
2021/09/06 00:53:31;;;;;;;4.30;2.88;;;18.10;71.20;;;;;;5038598;28;20029;-74
2021/09/06 00:55:57;;;;;;;4.75;3.40;;;18.10;71.30;;;;;;5042780;28;20020;-74
2021/09/06 00:58:24;;;;;;;5.03;2.88;;;18.00;71.30;;;;;;5038216;28;20100;-74
2021/09/06 01:00:50;;;;;;;5.93;3.78;;;18.00;71.10;;;;;;5037632;28;20022;-73
2021/09/06 01:03:17;;;;;;;30.73;6.78;;;18.00;71.10;;;;;;5029937;28;20025;-74
2021/09/06 01:05:45;;;;;;;283.83;8.48;;;17.90;71.90;;;;;;5038733;28;20492;-74
2021/09/06 01:08:19;;;;;;;197.23;6.88;;;17.90;72.70;;;;;;5043480;28;20132;-74
2021/09/06 01:11:04;;;;;;;182.68;6.35;;;17.90;73.10;;;;;;5039991;28;20045;-74
2021/09/06 01:13:52;;;;;;;74.53;5.05;;;17.80;73.00;;;;;;5038902;28;20036;-74
2021/09/06 01:16:23;;;;;;;33.60;3.97;;;17.80;72.80;;;;;;5052194;28;20032;-74
2021/09/06 01:18:49;;;;;;;66.70;3.33;;;17.80;72.40;;;;;;5054430;28;20029;-74
2021/09/06 01:21:15;;;;;;;209.32;6.35;;;17.70;72.10;;;;;;5040405;28;20025;-74
2021/09/06 01:23:58;;;;;;;6.30;3.08;;;17.70;72.00;;;;;;5041100;28;20481;-74
2021/09/06 01:26:28;;;;;;;17.17;2.15;;;17.70;72.10;;;;;;5055040;28;20036;-74
2021/09/06 01:28:54;;;;;;;14.57;2.63;;;17.70;72.10;;;;;;5052349;28;20095;-74
2021/09/06 01:31:23;;;;;;;46.47;3.53;;;17.60;72.20;;;;;;5037071;28;20132;-74
2021/09/06 01:33:48;;;;;;;28.20;3.75;;;17.60;72.30;;;;;;5043385;28;20021;-74
2021/09/06 01:36:17;;;;;;;4.70;3.10;;;17.60;72.40;;;;;;5041829;28;20025;-74
2021/09/06 01:38:43;;;;;;;9.20;3.95;;;17.50;72.40;;;;;;5053037;28;20029;-74
2021/09/06 01:41:08;;;;;;;4.13;2.63;;;17.50;72.50;;;;;;5044046;28;20358;-74
2021/09/06 01:43:35;;;;;;;6.30;3.22;;;17.50;72.50;;;;;;5050323;28;20492;-74
2021/09/06 01:46:02;;;;;;;5.38;4.18;;;17.40;72.40;;;;;;5051660;28;20373;-73
2021/09/06 01:48:31;;;;;;;5.55;3.20;;;17.40;72.40;;;;;;5050318;28;20045;-72
2021/09/06 01:50:57;;;;;;;3.15;2.60;;;17.40;72.30;;;;;;5033996;28;20031;-72
2021/09/06 01:53:22;;;;;;;8.57;5.45;;;17.40;72.30;;;;;;5037014;28;20033;-72
2021/09/06 01:55:52;;;;;;;12.77;5.90;;;17.40;72.70;;;;;;5047058;28;20032;-72
2021/09/06 01:58:18;;;;;;;22.95;4.50;;;17.30;73.00;;;;;;5034323;28;20029;-73
2021/09/06 02:00:43;;;;;;;5.93;3.90;;;17.30;73.40;;;;;;5040725;28;20018;-71
2021/09/06 02:03:10;;;;;;;5.63;3.35;;;17.30;73.50;;;;;;5033380;28;20025;-71
2021/09/06 02:05:46;;;;;;;14.38;3.40;;;17.20;73.80;;;;;;5036007;28;20032;-72
2021/09/06 02:08:17;;;;;;;4.10;3.10;;;17.20;74.00;;;;;;5048417;28;20029;-72
2021/09/06 02:10:44;;;;;;;4.28;2.92;;;17.20;74.10;;;;;;5042947;28;20072;-72
2021/09/06 02:13:11;;;;;;;3.67;2.50;;;17.20;74.10;;;;;;5035061;28;20477;-72
2021/09/06 02:15:37;;;;;;;8.63;2.50;;;17.20;74.00;;;;;;5037738;28;20021;-72
2021/09/06 02:18:03;;;;;;;2.75;2.35;;;17.10;73.90;;;;;;5039834;28;20508;-72
2021/09/06 02:20:33;;;;;;;3.15;2.20;;;17.10;73.80;;;;;;5040948;28;20029;-72
2021/09/06 02:23:01;;;;;;;2.47;2.10;;;17.10;73.90;;;;;;5037125;28;20033;-72
2021/09/06 02:25:27;;;;;;;2.90;1.92;;;17.00;73.70;;;;;;5051528;28;20025;-72
2021/09/06 02:27:53;;;;;;;4.45;2.60;;;17.00;73.70;;;;;;5034101;28;20087;-72
2021/09/06 02:30:21;;;;;;;4.00;2.38;;;17.00;73.70;;;;;;5032683;28;20116;-72
2021/09/06 02:32:47;;;;;;;4.03;2.40;;;17.00;73.40;;;;;;5046295;28;20028;-72
2021/09/06 02:35:33;;;;;;;3.55;2.70;;;17.00;73.20;;;;;;5037340;28;20496;-72
2021/09/06 02:37:59;;;;;;;3.58;2.80;;;16.90;73.10;;;;;;5051308;28;20377;-72
2021/09/06 02:40:24;;;;;;;11.93;2.78;;;16.90;73.30;;;;;;5053805;28;20047;-72
2021/09/06 02:42:51;;;;;;;5.30;3.10;;;16.90;73.20;;;;;;5038944;28;20083;-71
2021/09/06 02:45:17;;;;;;;30.25;3.88;;;16.90;73.30;;;;;;5053213;28;20051;-72
2021/09/06 02:47:49;;;;;;;18.92;2.13;;;16.80;73.20;;;;;;5047674;28;20129;-72
2021/09/06 02:50:16;;;;;;;1.60;1.50;;;16.80;73.20;;;;;;5032057;28;20028;-72
2021/09/06 02:52:42;;;;;;;3.30;2.30;;;16.80;73.30;;;;;;5044913;28;20040;-72
2021/09/06 02:55:09;;;;;;;2.00;1.70;;;16.80;73.30;;;;;;5049033;28;20089;-71
2021/09/06 02:57:40;;;;;;;3.08;2.13;;;16.80;73.10;;;;;;5041591;28;20025;-72
2021/09/06 03:00:06;;;;;;;2.75;2.08;;;16.70;73.10;;;;;;5049387;28;20029;-72
2021/09/06 03:02:33;;;;;;;3.13;2.30;;;16.70;73.10;;;;;;5033467;28;20492;-72
2021/09/06 03:04:58;;;;;;;3.67;2.17;;;16.60;73.10;;;;;;5033445;28;20044;-72
2021/09/06 03:07:24;;;;;;;2.75;2.30;;;16.60;73.00;;;;;;5034432;28;20063;-72
2021/09/06 03:09:51;;;;;;;3.55;2.55;;;16.60;72.60;;;;;;5033805;28;20025;-72
2021/09/06 03:12:18;;;;;;;24.00;4.00;;;16.60;72.50;;;;;;5035786;28;20028;-71
2021/09/06 03:14:46;;;;;;;3.55;2.83;;;16.60;72.70;;;;;;5050387;28;20017;-72
2021/09/06 03:17:11;;;;;;;13.35;3.17;;;16.60;72.60;;;;;;5046596;28;20506;-72
2021/09/06 03:19:37;;;;;;;168.00;5.28;;;16.50;72.40;;;;;;5040098;28;20024;-71
2021/09/06 03:22:06;;;;;;;249.40;6.07;;;16.50;72.40;;;;;;5050654;28;20024;-71
2021/09/06 03:24:32;;;;;;;77.53;3.53;;;16.40;72.40;;;;;;5047166;28;20025;-72
2021/09/06 03:26:57;;;;;;;18.10;2.85;;;16.40;72.50;;;;;;5034364;28;20036;-72
2021/09/06 03:29:23;;;;;;;30.42;3.40;;;16.40;72.80;;;;;;5042056;28;20032;-72
2021/09/06 03:31:49;;;;;;;12.52;2.15;;;16.40;72.90;;;;;;5048844;28;20025;-71
2021/09/06 03:34:16;;;;;;;26.55;3.13;;;16.30;72.80;;;;;;5044593;28;20053;-72
2021/09/06 03:36:45;;;;;;;26.83;2.90;;;16.30;73.00;;;;;;5045468;28;20035;-72
2021/09/06 03:39:16;;;;;;;16.00;2.30;;;16.30;73.10;;;;;;5039164;28;20111;-72
2021/09/06 03:41:42;;;;;;;2.90;2.20;;;16.30;73.20;;;;;;5039172;28;20021;-72
2021/09/06 03:44:10;;;;;;;2.80;2.10;;;16.20;73.00;;;;;;5046753;28;20108;-72
2021/09/06 03:46:36;;;;;;;160.95;5.53;;;16.20;72.90;;;;;;5041924;28;20112;-72
2021/09/06 03:49:02;;;;;;;4.05;2.60;;;16.20;72.80;;;;;;5044641;28;20492;-72
2021/09/06 03:51:29;;;;;;;3.53;2.65;;;16.10;72.70;;;;;;5043437;28;20112;-71
2021/09/06 03:53:55;;;;;;;82.45;4.28;;;16.10;72.70;;;;;;5043356;28;20029;-71
2021/09/06 03:56:23;;;;;;;89.07;5.10;;;16.10;72.90;;;;;;5032495;28;20381;-72
2021/09/06 03:58:50;;;;;;;73.28;4.97;;;16.10;73.10;;;;;;5031907;28;20021;-72
2021/09/06 04:01:16;;;;;;;53.97;4.63;;;16.00;73.30;;;;;;5030960;28;20029;-72
2021/09/06 04:03:44;;;;;;;31.70;4.68;;;16.00;73.60;;;;;;5031484;28;20025;-73
2021/09/06 04:06:10;;;;;;;25.23;3.45;;;16.00;73.60;;;;;;5031851;28;20025;-72
2021/09/06 04:08:35;;;;;;;9.30;3.60;;;16.00;73.60;;;;;;5031241;28;20495;-72
2021/09/06 04:11:01;;;;;;;5.15;3.60;;;16.00;73.70;;;;;;5031342;28;20029;-72
2021/09/06 04:13:31;;;;;;;5.25;3.47;;;15.90;73.80;;;;;;5048823;28;20071;-72
2021/09/06 04:15:59;;;;;;;4.68;3.08;;;15.90;73.70;;;;;;5049441;28;20055;-72
2021/09/06 04:18:27;;;;;;;8.05;3.80;;;15.90;73.50;;;;;;5032394;28;20021;-72
2021/09/06 04:20:56;;;;;;;9.07;3.80;;;15.90;73.50;;;;;;5031945;28;20077;-73
2021/09/06 04:23:22;;;;;;;138.43;5.70;;;15.90;73.60;;;;;;5031207;28;20442;-72
2021/09/06 04:25:48;;;;;;;135.82;4.70;;;15.90;73.60;;;;;;5034413;28;20032;-72
2021/09/06 04:28:14;;;;;;;38.50;3.65;;;15.80;73.50;;;;;;5046227;28;20047;-72
2021/09/06 04:30:40;;;;;;;126.45;5.10;;;15.80;73.50;;;;;;5049894;28;20389;-72
2021/09/06 04:33:06;;;;;;;150.48;5.80;;;15.80;73.60;;;;;;5039353;28;20033;-72
2021/09/06 04:35:32;;;;;;;34.53;4.20;;;15.80;73.80;;;;;;5044733;28;20155;-72
2021/09/06 04:37:58;;;;;;;203.85;7.88;;;15.70;73.90;;;;;;5033919;28;20022;-70
2021/09/06 04:40:24;;;;;;;130.80;4.00;;;15.70;73.90;;;;;;5031376;28;20025;-71
2021/09/06 04:42:52;;;;;;;335.27;8.38;;;15.70;73.90;;;;;;5032871;28;20091;-71
2021/09/06 04:45:18;;;;;;;385.77;8.77;;;15.70;74.00;;;;;;5044946;28;20365;-71
2021/09/06 04:47:46;;;;;;;317.00;7.55;;;15.70;74.20;;;;;;5031646;28;20053;-71
2021/09/06 04:50:12;;;;;;;237.40;5.85;;;15.70;74.40;;;;;;5035267;28;20025;-72
2021/09/06 04:52:38;;;;;;;177.77;5.47;;;15.60;74.40;;;;;;5030947;28;20044;-71
2021/09/06 04:55:09;;;;;;;191.48;5.15;;;15.70;74.60;;;;;;5032405;28;20500;-71
2021/09/06 04:57:38;;;;;;;117.07;4.93;;;15.60;74.60;;;;;;5030418;28;20116;-70
2021/09/06 05:00:05;;;;;;;155.27;6.22;;;15.60;74.80;;;;;;5029972;28;20109;-70
2021/09/06 05:02:31;;;;;;;70.00;5.07;;;15.60;74.90;;;;;;5030320;28;20083;-71
2021/09/06 05:05:01;;;;;;;89.68;5.22;;;15.60;75.10;;;;;;5031266;28;20432;-70
2021/09/06 05:07:27;;;;;;;81.43;5.05;;;15.60;75.50;;;;;;5038136;28;20041;-72
2021/09/06 05:09:52;;;;;;;35.72;3.70;;;15.60;75.80;;;;;;5045274;28;20492;-72
2021/09/06 05:12:18;;;;;;;93.18;4.68;;;15.60;76.00;;;;;;5030365;28;20029;-71
2021/09/06 05:14:44;;;;;;;82.35;5.70;;;15.60;76.20;;;;;;5030668;28;20385;-72
2021/09/06 05:17:10;;;;;;;60.90;5.05;;;15.60;76.20;;;;;;5043282;28;20485;-72
2021/09/06 05:19:38;;;;;;;79.68;5.43;;;15.50;76.20;;;;;;5046565;28;20032;-72
2021/09/06 05:22:03;;;;;;;58.03;4.75;;;15.50;76.40;;;;;;5045630;28;20038;-72
2021/09/06 05:24:31;;;;;;;76.40;5.50;;;15.50;76.50;;;;;;5042271;28;20107;-72
2021/09/06 05:26:57;;;;;;;43.45;5.28;;;15.50;76.70;;;;;;5032141;28;20745;-72
2021/09/06 05:29:23;;;;;;;74.55;5.43;;;15.50;76.90;;;;;;5047752;28;20032;-71
2021/09/06 05:31:49;;;;;;;91.18;6.07;;;15.50;77.00;;;;;;5039018;28;20022;-72
2021/09/06 05:34:15;;;;;;;42.95;5.43;;;15.50;77.30;;;;;;5032316;28;20540;-71
2021/09/06 05:36:41;;;;;;;7.35;4.50;;;15.50;77.40;;;;;;5030014;28;20112;-71
2021/09/06 05:39:07;;;;;;;8.63;4.43;;;15.40;77.40;;;;;;5030334;28;20133;-71
2021/09/06 05:41:39;;;;;;;9.48;5.18;;;15.40;77.50;;;;;;5034348;28;20080;-71
2021/09/06 05:44:08;;;;;;;17.65;6.00;;;15.40;77.60;;;;;;5035555;28;20033;-70
2021/09/06 05:46:34;;;;;;;31.65;6.13;;;15.50;77.90;;;;;;5029791;28;20034;-71
2021/09/06 05:49:02;;;;;;;60.42;6.60;;;15.50;78.00;;;;;;5031203;28;20064;-71
2021/09/06 05:51:30;;;;;;;65.85;8.05;;;15.40;78.70;;;;;;5032734;28;20037;-71
2021/09/06 05:54:03;;;;;;;64.43;6.25;;;15.40;78.30;;;;;;5030700;28;20477;-71
2021/09/06 05:56:29;;;;;;;122.93;6.22;;;15.40;78.40;;;;;;5050446;28;20037;-71
2021/09/06 05:58:57;;;;;;;197.23;9.05;;;15.40;78.60;;;;;;5034063;28;20501;-71
2021/09/06 06:01:25;;;;;;;101.25;7.00;;;15.50;78.70;;;;;;5036621;28;20021;-71
2021/09/06 06:03:51;;;;;;;100.85;6.63;;;15.50;78.90;;;;;;5044557;28;20099;-71
2021/09/06 06:06:25;;;;;;;;;;;15.50;79.10;;;;;;5033427;28;20045;-71
2021/09/06 06:08:55;;;;;;;115.90;5.95;;;15.50;78.80;;;;;;5042428;28;19912;-71
2021/09/06 06:11:23;;;;;;;169.88;7.47;;;15.50;79.10;;;;;;5040852;28;20095;-71
2021/09/06 06:13:49;;;;;;;82.57;5.95;;;15.50;79.40;;;;;;5044085;28;20026;-72
2021/09/06 06:16:16;;;;;;;62.40;5.25;;;15.50;79.80;;;;;;5033932;28;20064;-71
2021/09/06 06:18:42;;;;;;;137.60;5.43;;;15.50;80.20;;;;;;5036640;28;20060;-71
2021/09/06 06:21:11;;;;;;;41.17;4.53;;;15.50;80.50;;;;;;5032849;28;20397;-73
2021/09/06 06:23:59;;;;;;;15.82;4.72;;;15.50;81.00;;;;;;5039675;28;20029;-72
2021/09/06 06:26:51;;;;;;;34.22;6.10;;;15.50;81.20;;;;;;5034708;28;20063;-72
2021/09/06 06:29:17;;;;;;;125.70;7.70;;;15.60;81.60;;;;;;5052114;28;20112;-72
2021/09/06 06:31:44;;;;;;;38.55;5.90;;;15.60;82.00;;;;;;5050620;28;20029;-72
2021/09/06 06:34:11;;;;;;;88.15;7.32;;;15.60;82.40;;;;;;5045322;28;20022;-72
2021/09/06 06:36:38;;;;;;;263.92;8.60;;;15.60;82.80;;;;;;5045018;28;20075;-72
2021/09/06 06:39:05;;;;;;;164.63;7.47;;;15.60;83.30;;;;;;5046737;28;20029;-72
2021/09/06 06:41:33;;;;;;;251.27;9.68;;;15.60;83.50;;;;;;5050740;28;20017;-73
2021/09/06 06:44:04;;;;;;;158.55;7.70;;;15.70;83.90;;;;;;5039071;28;20029;-72
2021/09/06 06:46:32;;;;;;;113.65;7.40;;;15.70;84.40;;;;;;5041586;28;20029;-72
2021/09/06 06:48:58;;;;;;;101.03;6.75;;;15.80;84.90;;;;;;5038693;28;20121;-72
2021/09/06 06:51:27;;;;;;;129.40;6.95;;;15.80;85.10;;;;;;5037464;28;20021;-72
2021/09/06 06:53:52;;;;;;;83.63;6.70;;;15.80;85.60;;;;;;5041269;28;20370;-74
2021/09/06 06:56:22;;;;;;;21.60;5.63;;;15.90;85.80;;;;;;5037351;28;20009;-74
2021/09/06 06:58:50;;;;;;;8.52;6.13;;;15.90;86.10;;;;;;5052332;28;20032;-74
2021/09/06 07:01:17;;;;;;;10.43;6.78;;;16.00;86.30;;;;;;5049425;28;20025;-74
2021/09/06 07:03:47;;;;;;;14.98;6.95;;;16.00;86.80;;;;;;5052549;28;20384;-74
2021/09/06 07:06:14;;;;;;;14.95;8.25;;;16.00;87.30;;;;;;5048416;28;20049;-74
2021/09/06 07:08:40;;;;;;;15.02;8.18;;;16.10;87.70;;;;;;5032737;28;20033;-74
2021/09/06 07:11:06;;;;;;;16.20;8.98;;;16.10;87.60;;;;;;5046108;28;20029;-74
2021/09/06 07:13:33;;;;;;;16.13;8.23;;;16.20;87.70;;;;;;5033621;28;20030;-74
2021/09/06 07:16:01;;;;;;;20.90;10.68;;;16.30;87.90;;;;;;5032434;28;20026;-74
2021/09/06 07:18:27;;;;;;;22.40;11.80;;;16.30;88.20;;;;;;5037134;28;20020;-74
2021/09/06 07:20:53;;;;;;;20.08;11.10;;;16.30;88.40;;;;;;5046198;28;20036;-74
2021/09/06 07:23:19;;;;;;;23.23;11.65;;;16.30;88.40;;;;;;5034157;28;20021;-74
2021/09/06 07:25:45;;;;;;;28.02;15.15;;;16.40;88.50;;;;;;5034166;28;20091;-74
2021/09/06 07:28:13;;;;;;;24.55;13.65;;;16.50;88.90;;;;;;5044616;28;20033;-75
2021/09/06 07:30:39;;;;;;;21.25;12.38;;;16.50;89.90;;;;;;5034481;28;20112;-74
2021/09/06 07:33:06;;;;;;;25.80;13.05;;;16.50;89.10;;;;;;5049047;28;20083;-75
2021/09/06 07:35:34;;;;;;;22.75;12.90;;;16.60;89.40;;;;;;5046552;28;20021;-74
2021/09/06 07:38:00;;;;;;;18.67;11.55;;;16.70;89.90;;;;;;5037950;28;20029;-75
2021/09/06 07:40:28;;;;;;;20.27;12.25;;;16.70;90.00;;;;;;5043880;28;20443;-74
2021/09/06 07:42:54;;;;;;;20.20;12.55;;;16.80;90.00;;;;;;5048709;28;20108;-74
2021/09/06 07:45:20;;;;;;;20.83;11.32;;;16.90;90.00;;;;;;5048636;28;20029;-75
2021/09/06 07:47:49;;;;;;;20.88;11.45;;;16.90;90.10;;;;;;5037485;28;20060;-75
2021/09/06 07:50:23;;;;;;;22.30;13.15;;;16.90;90.10;;;;;;5038913;28;20025;-74
2021/09/06 07:52:48;;;;;;;26.75;12.70;;;17.00;90.20;;;;;;5047008;28;20131;-75
2021/09/06 07:55:15;;;;;;;26.98;12.52;;;17.10;90.40;;;;;;5041367;28;20034;-75
2021/09/06 07:57:40;;;;;;;21.52;10.70;;;17.10;90.30;;;;;;5034028;28;20026;-75
2021/09/06 08:00:06;;;;;;;22.58;10.63;;;17.20;90.50;;;;;;5046545;28;20052;-74
2021/09/06 08:02:48;;;;;;;22.45;11.80;;;17.20;90.40;;;;;;5047206;28;20477;-75
2021/09/06 08:05:24;;;;;;;23.70;12.15;;;17.30;90.40;;;;;;5058634;28;20033;-74
2021/09/06 08:07:53;;;;;;;26.52;12.52;;;17.40;90.60;;;;;;5035624;28;20124;-75
2021/09/06 08:10:19;;;;;;;23.30;12.23;;;17.40;90.60;;;;;;5043756;28;20108;-75
2021/09/06 08:12:45;;;;;;;17.95;10.68;;;17.50;90.70;;;;;;5040871;28;20035;-75
2021/09/06 08:15:11;;;;;;;17.58;10.27;;;17.50;90.30;;;;;;5047679;28;20025;-75
2021/09/06 08:17:38;;;;;;;19.92;10.70;;;17.60;90.00;;;;;;5033768;28;20035;-74
2021/09/06 08:20:06;;;;;;;20.48;10.57;;;17.60;89.30;;;;;;5042447;28;20021;-75
2021/09/06 08:22:33;;;;;;;22.08;10.55;;;17.60;88.80;;;;;;5046055;28;20404;-74
2021/09/06 08:25:00;;;;;;;19.20;10.25;;;17.60;88.30;;;;;;5040380;28;20128;-72
2021/09/06 08:27:26;;;;;;;22.48;10.75;;;17.70;88.60;;;;;;5034237;28;20124;-74
2021/09/06 08:29:52;;;;;;;18.25;9.52;;;17.70;89.20;;;;;;5039877;28;20111;-74
2021/09/06 08:32:18;;;;;;;14.80;9.07;;;17.80;89.20;;;;;;5061413;28;20029;-74
2021/09/06 08:34:44;;;;;;;19.00;8.52;;;17.90;89.30;;;;;;5033835;28;20362;-74
2021/09/06 08:37:10;;;;;;;21.50;9.13;;;18.00;89.20;;;;;;5039399;28;20142;-74
2021/09/06 08:39:37;;;;;;;18.20;9.35;;;18.00;89.00;;;;;;5041589;28;20361;-73
2021/09/06 08:42:04;;;;;;;15.07;7.78;;;18.10;89.00;;;;;;5043025;28;20029;-74
2021/09/06 08:44:30;;;;;;;15.00;7.10;;;18.10;89.00;;;;;;5033769;28;20025;-73
2021/09/06 08:46:56;;;;;;;16.50;7.78;;;18.20;88.70;;;;;;5033411;28;20504;-74
2021/09/06 08:49:21;;;;;;;19.88;8.52;;;18.30;88.40;;;;;;5038506;28;20362;-73
2021/09/06 08:51:48;;;;;;;15.82;8.70;;;18.30;88.40;;;;;;5039064;28;20025;-74
2021/09/06 08:54:14;;;;;;;18.27;7.30;;;18.40;88.00;;;;;;5041753;28;20028;-74
2021/09/06 08:56:40;;;;;;;15.63;6.93;;;18.40;87.10;;;;;;5037815;28;20025;-74
2021/09/06 08:59:12;;;;;;;12.52;6.93;;;18.40;86.50;;;;;;5035952;28;20032;-73
2021/09/06 09:01:40;;;;;;;17.48;7.88;;;18.50;86.30;;;;;;5048391;28;20017;-74
2021/09/06 09:04:26;;;;;;;13.85;7.63;;;18.50;86.50;;;;;;5052536;28;20140;-73
2021/09/06 09:07:10;;;;;;;20.17;8.18;;;18.50;86.70;;;;;;5040811;28;20134;-75
2021/09/06 09:10:07;;;;;;;22.00;7.75;;;18.60;86.50;;;;;;5031285;28;20118;-75
2021/09/06 09:13:09;;;;;;;11.68;6.63;;;18.70;86.70;;;;;;5043544;28;20036;-74
2021/09/06 09:16:01;;;;;;;13.48;6.85;;;18.70;86.10;;;;;;5039869;28;20142;-74
2021/09/06 09:18:41;;;;;;;13.32;6.78;;;18.70;85.60;;;;;;5045793;28;20380;-74
2021/09/06 09:21:26;;;;;;;10.10;5.13;;;18.80;85.40;;;;;;5047456;28;20120;-74
2021/09/06 09:24:19;;;;;;;13.40;5.78;;;18.90;84.50;;;;;;5041542;28;20054;-75
2021/09/06 09:27:12;;;;;;;17.65;5.80;;;18.90;83.90;;;;;;5053039;28;20511;-74
2021/09/06 09:29:58;;;;;;;12.57;6.10;;;18.90;83.00;;;;;;5045365;28;20044;-74
2021/09/06 09:32:36;;;;;;;10.93;4.93;;;19.00;83.10;;;;;;5035167;28;20022;-74
2021/09/06 09:35:10;;;;;;;10.77;5.15;;;19.00;82.00;;;;;;5036454;28;20112;-74
2021/09/06 09:37:40;;;;;;;14.35;6.97;;;19.10;81.90;;;;;;5038719;28;20025;-73
2021/09/06 09:40:10;;;;;;;15.30;5.78;;;19.20;82.10;;;;;;5034539;28;20021;-72
2021/09/06 09:42:50;;;;;;;12.68;6.22;;;19.30;82.50;;;;;;5036641;28;20041;-73
2021/09/06 09:45:25;;;;;;;19.48;7.13;;;19.30;82.70;;;;;;5038208;28;20076;-72
2021/09/06 09:48:02;;;;;;;18.20;6.45;;;19.40;82.00;;;;;;5034390;28;20064;-72
2021/09/06 09:50:33;;;;;;;16.05;6.68;;;19.50;81.90;;;;;;5036946;28;20021;-73
2021/09/06 09:52:59;;;;;;;12.00;6.55;;;19.50;81.90;;;;;;5038033;28;20507;-73
2021/09/06 09:55:31;;;;;;;15.40;6.07;;;19.60;82.00;;;;;;5036505;28;20400;-72
2021/09/06 09:57:57;;;;;;;18.38;6.53;;;19.70;81.90;;;;;;5035729;28;20053;-73
2021/09/06 10:00:24;;;;;;;13.00;6.72;;;19.80;81.40;;;;;;5037902;28;20044;-73
2021/09/06 10:02:56;;;;;;;12.95;6.28;;;19.80;80.80;;;;;;5042853;28;20032;-73
2021/09/06 10:05:30;;;;;;;13.00;5.55;;;19.90;80.30;;;;;;5039829;28;20049;-73
2021/09/06 10:07:57;;;;;;;10.93;5.03;;;20.00;79.80;;;;;;5037627;28;20533;-73
2021/09/06 10:10:24;;;;;;;11.65;5.70;;;20.10;79.40;;;;;;5039531;28;20424;-73
2021/09/06 10:13:06;;;;;;;8.90;5.28;;;20.10;78.70;;;;;;5035966;28;20029;-73
2021/09/06 10:15:35;;;;;;;12.73;4.68;;;20.20;78.10;;;;;;5035127;28;20052;-73
2021/09/06 10:18:20;;;;;;;9.68;4.78;;;20.20;77.60;;;;;;5036447;28;20049;-71
2021/09/06 10:20:50;;;;;;;67.93;5.50;;;20.30;77.00;;;;;;5042058;28;20029;-71
2021/09/06 10:23:19;;;;;;;10.48;4.10;;;20.40;76.20;;;;;;5036475;28;20026;-71
2021/09/06 10:25:49;;;;;;;12.32;4.00;;;20.40;75.10;;;;;;5040651;28;20108;-71
2021/09/06 10:28:16;;;;;;;14.15;3.90;;;20.50;75.00;;;;;;5045307;28;20069;-71
2021/09/06 10:30:50;;;;;;;10.75;4.20;;;20.50;74.70;;;;;;5035591;28;20095;-71
2021/09/06 10:33:37;;;;;;;9.80;4.40;;;20.60;74.70;;;;;;5038253;28;20045;-71
2021/09/06 10:36:09;;;;;;;7.93;4.45;;;20.60;74.90;;;;;;5034858;28;20840;-71
2021/09/06 10:38:46;;;;;;;8.55;4.68;;;20.70;74.40;;;;;;5038679;28;20083;-71
2021/09/06 10:41:22;;;;;;;6.57;3.78;;;20.80;74.20;;;;;;5036949;28;20087;-71
2021/09/06 10:44:07;;;;;;;11.32;4.03;;;20.90;73.90;;;;;;5048887;28;20029;-71
2021/09/06 10:46:32;;;;;;;;;;;20.90;73.50;;;;;;5050767;28;20044;-72
2021/09/06 10:49:06;;;;;;;7.80;3.47;;;21.00;74.00;;;;;;5045310;28;20361;-71
2021/09/06 10:51:35;;;;;;;8.30;4.25;;;21.00;73.30;;;;;;5034737;28;20034;-70
2021/09/06 10:54:06;;;;;;;7.28;3.90;;;21.00;73.40;;;;;;5048791;28;20037;-71
2021/09/06 10:56:34;;;;;;;10.73;3.97;;;21.10;73.00;;;;;;5052503;28;20052;-72
2021/09/06 10:59:01;;;;;;;7.15;3.53;;;21.10;72.80;;;;;;5039439;28;20067;-72
2021/09/06 11:01:27;;;;;;;7.00;3.83;;;21.20;72.50;;;;;;5050245;28;20049;-72
2021/09/06 11:03:53;;;;;;;10.25;3.90;;;21.20;71.70;;;;;;5041336;28;20480;-72
2021/09/06 11:06:21;;;;;;;9.52;4.10;;;21.30;71.70;;;;;;5034994;28;20029;-72
2021/09/06 11:08:48;;;;;;;11.48;3.60;;;21.40;70.90;;;;;;5044046;28;20041;-72
2021/09/06 11:11:15;;;;;;;10.68;4.80;;;21.40;70.80;;;;;;5046507;28;20021;-71
2021/09/06 11:13:45;;;;;;;7.00;3.70;;;21.40;70.10;;;;;;5044000;28;20182;-72
2021/09/06 11:16:15;;;;;;;7.20;3.13;;;21.50;70.30;;;;;;5036030;28;20025;-71
2021/09/06 11:18:49;;;;;;;9.88;3.90;;;21.50;69.70;;;;;;5036069;28;20030;-72
2021/09/06 11:21:21;;;;;;;9.68;4.88;;;21.60;69.40;;;;;;5039583;28;20029;-72
2021/09/06 11:23:50;;;;;;;11.82;4.55;;;21.70;70.00;;;;;;5040451;28;20025;-71
2021/09/06 11:26:25;;;;;;;12.10;5.13;;;21.70;70.70;;;;;;5052157;28;20059;-72
2021/09/06 11:28:51;;;;;;;12.10;4.78;;;21.80;71.40;;;;;;5040293;28;20033;-72
2021/09/06 11:31:22;;;;;;;7.78;4.35;;;21.90;71.60;;;;;;5038713;28;20055;-72
2021/09/06 11:34:05;;;;;;;12.43;5.28;;;22.00;71.90;;;;;;5040814;28;20057;-72
2021/09/06 11:36:35;;;;;;;8.52;4.50;;;22.00;71.80;;;;;;5035934;28;20029;-71
2021/09/06 11:39:02;;;;;;;15.52;5.20;;;22.00;72.10;;;;;;5033568;28;20038;-72
2021/09/06 11:41:28;;;;;;;7.13;4.22;;;22.10;71.60;;;;;;5032976;28;20472;-73
2021/09/06 11:43:54;;;;;;;8.07;4.53;;;22.10;71.50;;;;;;5043756;28;20036;-72
2021/09/06 11:46:22;;;;;;;10.07;5.15;;;22.10;71.60;;;;;;5038001;28;20029;-72
2021/09/06 11:48:49;;;;;;;14.93;5.55;;;22.20;71.30;;;;;;5035994;28;20041;-72
2021/09/06 11:51:17;;;;;;;10.02;4.53;;;22.20;70.20;;;;;;5035873;28;20389;-72
2021/09/06 11:54:02;;;;;;;13.43;4.70;;;22.20;70.30;;;;;;5037099;28;20028;-72
2021/09/06 11:56:29;;;;;;;7.32;3.92;;;22.20;70.60;;;;;;5038449;28;20033;-72
2021/09/06 11:58:59;;;;;;;8.77;3.70;;;22.30;71.10;;;;;;5049851;28;20040;-72
2021/09/06 12:01:25;;;;;;;11.55;4.45;;;22.30;71.70;;;;;;5042105;28;20378;-72
2021/09/06 12:03:51;;;;;;;8.27;4.63;;;22.30;71.90;;;;;;5035657;28;20036;-71
2021/09/06 12:06:21;;;;;;;10.88;4.45;;;22.30;72.00;;;;;;5043268;28;20488;-71
2021/09/06 12:08:55;;;;;;;9.18;4.40;;;22.30;72.50;;;;;;5045450;28;20051;-71
2021/09/06 12:11:21;;;;;;;14.02;4.47;;;22.30;72.50;;;;;;5051562;28;20029;-71
2021/09/06 12:13:57;;;;;;;8.23;4.55;;;22.30;72.40;;;;;;5038802;28;20033;-71
2021/09/06 12:16:29;;;;;;;10.10;4.05;;;22.40;71.40;;;;;;5035503;28;20388;-72
2021/09/06 12:18:57;;;;;;;9.43;4.50;;;22.50;71.20;;;;;;5033731;28;20084;-72
2021/09/06 12:21:24;;;;;;;11.07;4.50;;;22.60;71.00;;;;;;5032039;28;20295;-73
2021/09/06 12:23:58;;;;;;;6.28;3.42;;;22.70;70.40;;;;;;5031061;28;20033;-73
2021/09/06 12:26:24;;;;;;;10.27;4.20;;;22.70;70.20;;;;;;5038596;28;20036;-67
2021/09/06 12:28:57;;;;;;;10.80;4.07;;;22.80;69.80;;;;;;5038588;28;20050;-71
2021/09/06 12:31:24;;;;;;;9.13;4.03;;;22.80;69.60;;;;;;5038432;28;20048;-71
2021/09/06 12:33:50;;;;;;;8.05;4.00;;;22.90;69.50;;;;;;5033501;28;20029;-71
2021/09/06 12:36:17;;;;;;;12.82;3.95;;;22.90;69.50;;;;;;5031939;28;20484;-71
2021/09/06 12:38:43;;;;;;;13.38;4.55;;;23.00;69.30;;;;;;5033553;28;20121;-71
2021/09/06 12:41:08;;;;;;;7.57;3.53;;;23.00;69.30;;;;;;5035955;28;20141;-74
2021/09/06 12:43:34;;;;;;;10.98;4.28;;;23.00;68.80;;;;;;5036502;28;20109;-71
2021/09/06 12:46:00;;;;;;;6.47;3.75;;;23.10;68.60;;;;;;5036421;28;20472;-71
2021/09/06 12:48:26;;;;;;;6.00;3.30;;;23.20;68.90;;;;;;5036124;28;20057;-71